Time;durP1;ratioP1;P1;durP2;ratioP2;P2;SDS_P1;SDS_P2;PMS_P1;PMS_P2;Temp;Humidity;BMP_temperature;BMP_pressure;BME280_temperature;BME280_humidity;BME280_pressure;Samples;Min_cycle;Max_cycle;Signal;HPM_P1;HPM_P2
2023/03/07 00:02:08;;;;;;;13.80;7.15;;;;;;;0.04;100.00;98987.03;5041877;28;20048;-73
2023/03/07 00:04:33;;;;;;;12.65;6.78;;;;;;;0.10;100.00;98974.19;5040472;28;20474;-73
2023/03/07 00:06:59;;;;;;;14.70;7.73;;;;;;;-0.05;100.00;98942.31;5041991;28;20044;-72
2023/03/07 00:09:24;;;;;;;15.60;7.40;;;;;;;-0.07;100.00;98931.13;5041456;28;20315;-72
2023/03/07 00:11:50;;;;;;;15.60;8.40;;;;;;;-0.16;100.00;98921.44;5039700;28;20037;-72
2023/03/07 00:14:15;;;;;;;18.27;8.63;;;;;;;-0.11;100.00;98919.22;5042283;28;20390;-72
2023/03/07 00:16:40;;;;;;;18.60;9.38;;;;;;;-0.20;100.00;98912.19;5040177;28;20164;-73
2023/03/07 00:19:06;;;;;;;19.10;9.90;;;;;;;-0.23;100.00;98912.47;5042111;28;20139;-72
2023/03/07 00:21:33;;;;;;;19.58;9.85;;;;;;;-0.25;100.00;98898.66;5022295;28;20059;-73
2023/03/07 00:23:58;;;;;;;25.63;10.82;;;;;;;-0.37;100.00;98887.50;5041885;28;20025;-73
2023/03/07 00:26:26;;;;;;;23.23;11.15;;;;;;;-0.31;100.00;98888.72;5026904;28;20048;-72
2023/03/07 00:28:53;;;;;;;26.83;13.50;;;;;;;-0.39;100.00;98881.56;5043637;28;20033;-75
2023/03/07 00:31:20;;;;;;;26.20;12.52;;;;;;;-0.41;100.00;98872.19;5010854;28;20040;-73
2023/03/07 00:33:45;;;;;;;31.33;15.25;;;;;;;-0.46;100.00;98869.97;5022509;28;20069;-73
2023/03/07 00:36:21;;;;;;;32.55;14.32;;;;;;;-0.39;100.00;98871.06;5027035;28;20500;-73
2023/03/07 00:38:46;;;;;;;35.78;15.13;;;;;;;-0.49;100.00;98852.72;5024569;28;20041;-75
2023/03/07 00:41:15;;;;;;;36.83;15.93;;;;;;;-0.48;100.00;98843.06;5027252;28;20075;-73
2023/03/07 00:43:40;;;;;;;38.58;16.15;;;;;;;-0.44;100.00;98850.50;5039896;28;20048;-73
2023/03/07 00:46:06;;;;;;;36.15;16.35;;;;;;;-0.40;100.00;98834.50;5025649;28;20059;-73
2023/03/07 00:48:34;;;;;;;40.15;17.35;;;;;;;-0.38;100.00;98825.50;5040047;28;20102;-73
2023/03/07 00:51:00;;;;;;;35.40;16.73;;;;;;;-0.38;100.00;98817.66;5027048;28;20452;-73
2023/03/07 00:53:26;;;;;;;39.35;18.13;;;;;;;-0.36;100.00;98805.22;5040656;28;20021;-73
2023/03/07 00:56:04;;;;;;;39.80;19.52;;;;;;;-0.34;100.00;98803.28;5039351;28;20029;-74
2023/03/07 00:58:32;;;;;;;44.67;19.63;;;;;;;-0.40;100.00;98795.16;5025481;28;20448;-73
2023/03/07 01:00:57;;;;;;;47.75;20.60;;;;;;;-0.45;100.00;98777.22;5035218;28;20036;-74
2023/03/07 01:03:24;;;;;;;;;;;;;;;-0.50;100.00;98782.88;5026487;28;20033;-74
2023/03/07 01:05:49;;;;;;;48.08;20.80;;;;;;;-0.51;100.00;98768.13;5032237;28;19940;-73
2023/03/07 01:08:16;;;;;;;46.97;20.85;;;;;;;-0.48;100.00;98767.84;5010749;28;20105;-73
2023/03/07 01:10:42;;;;;;;57.33;22.27;;;;;;;-0.50;100.00;98756.69;5037841;28;20121;-73
2023/03/07 01:13:09;;;;;;;47.55;20.35;;;;;;;-0.53;100.00;98745.66;5041156;28;20379;-73
2023/03/07 01:15:35;;;;;;;54.83;21.92;;;;;;;-0.52;100.00;98748.13;5022688;28;20044;-73
2023/03/07 01:18:01;;;;;;;55.38;24.48;;;;;;;-0.53;100.00;98740.41;5026661;28;20069;-72
2023/03/07 01:20:29;;;;;;;;;;;;;;;-0.55;100.00;98737.91;5040168;28;20037;-73
2023/03/07 01:22:54;;;;;;;51.85;23.27;;;;;;;-0.55;100.00;98731.84;5041416;28;19913;-73
2023/03/07 01:25:20;;;;;;;52.17;24.17;;;;;;;-0.56;100.00;98731.03;5022584;28;20033;-73
2023/03/07 01:27:45;;;;;;;51.95;24.55;;;;;;;-0.52;100.00;98719.28;5038194;28;20059;-73
2023/03/07 01:30:11;;;;;;;59.88;23.80;;;;;;;-0.57;100.00;98718.88;5026361;28;20367;-74
2023/03/07 01:32:37;;;;;;;50.30;24.52;;;;;;;-0.54;100.00;98713.38;5039423;28;20451;-74
2023/03/07 01:35:03;;;;;;;61.10;26.70;;;;;;;-0.47;100.00;98709.22;5038788;28;20025;-75
2023/03/07 01:37:28;;;;;;;60.03;24.98;;;;;;;-0.51;100.00;98702.59;5025302;28;20473;-73
2023/03/07 01:39:54;;;;;;;58.83;26.42;;;;;;;-0.46;100.00;98696.94;5039483;28;20029;-74
2023/03/07 01:42:20;;;;;;;;;;;;;;;-0.44;100.00;98681.88;5026650;28;20120;-74
2023/03/07 01:45:25;;;;;;;56.15;24.10;;;;;;;-0.45;100.00;98680.22;5038472;28;20028;-75
2023/03/07 01:47:51;;;;;;;61.13;24.70;;;;;;;-0.50;100.00;98656.22;5025346;28;20068;-75
2023/03/07 01:50:17;;;;;;;57.53;25.13;;;;;;;-0.50;100.00;98651.81;5023182;28;20064;-75
2023/03/07 01:52:58;;;;;;;55.85;25.13;;;;;;;-0.49;100.00;98648.25;5021132;28;20132;-74
2023/03/07 01:55:28;;;;;;;59.00;25.20;;;;;;;-0.44;100.00;98648.63;5021051;28;20043;-75
2023/03/07 01:58:07;;;;;;;57.88;25.05;;;;;;;-0.48;100.00;98628.91;5023289;28;20367;-74
2023/03/07 02:00:35;;;;;;;52.60;23.98;;;;;;;-0.42;100.00;98624.91;5022940;28;20041;-74
2023/03/07 02:03:16;;;;;;;59.33;26.77;;;;;;;-0.44;100.00;98625.03;5026404;28;20025;-74
2023/03/07 02:05:48;;;;;;;55.97;25.15;;;;;;;-0.40;100.00;98635.22;5022538;28;20483;-75
2023/03/07 02:08:15;;;;;;;54.45;25.60;;;;;;;-0.43;100.00;98613.56;5039426;28;20123;-75
2023/03/07 02:10:42;;;;;;;57.22;25.55;;;;;;;-0.41;100.00;98607.38;5020892;28;20034;-76
2023/03/07 02:13:08;;;;;;;63.15;25.63;;;;;;;-0.33;100.00;98604.84;5026193;28;20036;-75
2023/03/07 02:15:34;;;;;;;61.60;28.42;;;;;;;-0.36;100.00;98594.66;5020890;28;20032;-75
2023/03/07 02:18:00;;;;;;;65.18;26.98;;;;;;;-0.32;100.00;98601.25;5040767;28;20367;-76
2023/03/07 02:20:55;;;;;;;66.25;31.25;;;;;;;-0.29;100.00;98596.53;5032769;28;20037;-76
2023/03/07 02:23:29;;;;;;;60.33;27.02;;;;;;;-0.32;100.00;98585.53;5037584;28;20127;-76
2023/03/07 02:26:10;;;;;;;67.78;29.38;;;;;;;-0.30;100.00;98571.28;5040439;28;20109;-75
2023/03/07 02:28:38;;;;;;;76.30;30.05;;;;;;;-0.29;100.00;98559.00;5021788;28;20036;-76
2023/03/07 02:31:06;;;;;;;64.63;29.10;;;;;;;-0.23;100.00;98567.09;5025921;28;20111;-76
2023/03/07 02:33:33;;;;;;;69.07;29.85;;;;;;;-0.18;100.00;98550.94;5021529;28;20036;-76
2023/03/07 02:36:10;;;;;;;72.78;29.25;;;;;;;-0.12;100.00;98539.00;5039009;28;20029;-75
2023/03/07 02:38:43;;;;;;;70.85;30.58;;;;;;;-0.16;100.00;98530.63;5022646;28;20160;-76
2023/03/07 02:41:11;;;;;;;69.25;29.58;;;;;;;-0.09;100.00;98534.31;5026203;28;20576;-76
2023/03/07 02:43:37;;;;;;;72.95;30.02;;;;;;;-0.07;100.00;98516.63;5021173;28;20043;-76
2023/03/07 02:46:03;;;;;;;64.53;29.52;;;;;;;-0.05;100.00;98519.09;5025375;28;20502;-76
2023/03/07 02:48:28;;;;;;;65.53;29.50;;;;;;;-0.06;100.00;98506.94;5025046;28;20049;-76
2023/03/07 02:50:55;;;;;;;70.70;31.30;;;;;;;-0.04;100.00;98497.94;5025836;28;20040;-77
2023/03/07 02:53:20;;;;;;;70.82;30.13;;;;;;;-0.09;100.00;98497.59;5027388;28;20107;-76
2023/03/07 02:55:46;;;;;;;73.90;33.05;;;;;;;-0.12;100.00;98486.56;5009140;28;20222;-76
2023/03/07 02:58:11;;;;;;;75.07;32.65;;;;;;;-0.07;100.00;98503.50;5029597;28;20112;-77
2023/03/07 03:00:37;;;;;;;75.13;31.48;;;;;;;-0.03;100.00;98489.09;5024251;28;20065;-76
2023/03/07 03:03:02;;;;;;;71.60;31.58;;;;;;;-0.01;100.00;98496.81;5026182;28;20505;-76
2023/03/07 03:05:28;;;;;;;76.93;32.00;;;;;;;0.00;100.00;98485.38;5011493;28;20617;-76
2023/03/07 03:07:53;;;;;;;76.88;33.42;;;;;;;0.03;100.00;98473.75;5042435;28;20447;-76
2023/03/07 03:10:19;;;;;;;86.65;35.13;;;;;;;0.03;100.00;98469.31;5043330;28;20417;-76
2023/03/07 03:12:46;;;;;;;74.47;33.72;;;;;;;0.02;100.00;98464.22;5040732;28;20060;-76
2023/03/07 03:15:12;;;;;;;78.88;31.77;;;;;;;0.01;100.00;98476.53;5009220;28;20075;-76
2023/03/07 03:17:37;;;;;;;78.63;33.53;;;;;;;0.08;100.00;98468.88;5041722;28;20056;-76
2023/03/07 03:20:10;;;;;;;71.18;31.80;;;;;;;0.13;100.00;98471.88;5025654;28;20387;-76
2023/03/07 03:22:36;;;;;;;72.13;30.08;;;;;;;0.15;100.00;98467.28;5034048;28;20036;-76
2023/03/07 03:25:06;;;;;;;80.57;31.08;;;;;;;0.23;100.00;98448.16;5028358;28;20029;-76
2023/03/07 03:27:31;;;;;;;66.85;28.98;;;;;;;0.25;100.00;98447.03;5023423;28;20538;-76
2023/03/07 03:29:57;;;;;;;69.80;32.88;;;;;;;0.30;100.00;98431.63;5028724;28;20078;-77
2023/03/07 03:32:22;;;;;;;64.03;29.63;;;;;;;0.32;100.00;98426.25;5011129;28;20504;-76
2023/03/07 03:34:48;;;;;;;70.27;29.80;;;;;;;0.33;100.00;98420.84;5040678;28;20060;-77
2023/03/07 03:37:13;;;;;;;68.32;29.50;;;;;;;0.38;100.00;98429.06;5028390;28;20276;-77
2023/03/07 03:39:39;;;;;;;61.78;30.45;;;;;;;0.38;100.00;98415.94;5023198;28;20422;-77
2023/03/07 03:42:05;;;;;;;;;;;;;;;0.45;100.00;98410.09;5028862;28;20541;-77
2023/03/07 03:44:30;;;;;;;61.58;27.33;;;;;;;0.47;100.00;98408.09;5026960;28;19959;-76
2023/03/07 03:46:56;;;;;;;66.53;29.83;;;;;;;0.48;100.00;98404.53;5041119;28;20067;-77
2023/03/07 03:49:22;;;;;;;67.55;27.40;;;;;;;0.39;100.00;98380.84;5027906;28;20032;-76
2023/03/07 03:51:50;;;;;;;62.80;28.55;;;;;;;0.45;100.00;98382.03;5040419;28;20025;-77
2023/03/07 03:54:16;;;;;;;;;;;;;;;0.50;100.00;98371.06;5030770;28;20055;-77
2023/03/07 03:56:41;;;;;;;63.10;27.08;;;;;;;0.49;100.00;98366.78;5028359;28;19916;-78
2023/03/07 03:59:06;;;;;;;62.63;26.20;;;;;;;0.52;100.00;98369.91;5024991;28;20029;-77
2023/03/07 04:01:32;;;;;;;57.90;29.95;;;;;;;0.52;100.00;98377.81;5025093;28;20048;-77
2023/03/07 04:03:58;;;;;;;58.28;26.98;;;;;;;0.53;100.00;98370.75;5029157;28;20029;-76
2023/03/07 04:06:26;;;;;;;64.57;26.60;;;;;;;0.52;100.00;98350.72;5028466;28;20208;-77
2023/03/07 04:08:52;;;;;;;60.97;25.63;;;;;;;0.62;100.00;98354.84;5018808;28;20036;-76
2023/03/07 04:11:19;;;;;;;52.35;23.20;;;;;;;0.62;100.00;98343.53;5025294;28;20075;-76
2023/03/07 04:13:45;;;;;;;49.30;22.40;;;;;;;0.65;100.00;98337.16;5040671;28;20100;-77
2023/03/07 04:16:11;;;;;;;42.95;21.17;;;;;;;0.66;100.00;98329.13;5028316;28;20079;-77
2023/03/07 04:18:37;;;;;;;49.10;22.95;;;;;;;0.76;100.00;98331.63;5023989;28;20086;-78
2023/03/07 04:21:04;;;;;;;40.25;19.85;;;;;;;0.78;100.00;98311.28;5009898;28;20033;-77
2023/03/07 04:23:31;;;;;;;46.33;20.17;;;;;;;0.79;100.00;98307.66;5015234;28;20033;-76
2023/03/07 04:25:58;;;;;;;;;;;;;;;0.83;100.00;98299.28;5036799;28;20465;-77
2023/03/07 04:28:26;;;;;;;33.47;15.63;;;;;;;0.87;100.00;98293.72;5041632;28;19912;-77
2023/03/07 04:30:52;;;;;;;39.58;17.77;;;;;;;0.95;100.00;98291.13;5042757;28;20028;-77
2023/03/07 04:33:19;;;;;;;33.20;16.80;;;;;;;0.92;100.00;98276.50;5041958;28;20036;-77
2023/03/07 04:35:47;;;;;;;32.15;13.85;;;;;;;0.99;100.00;98260.91;5039777;28;20060;-76
2023/03/07 04:38:15;;;;;;;28.77;13.23;;;;;;;1.01;100.00;98258.94;5033568;28;20029;-76
2023/03/07 04:40:41;;;;;;;24.58;12.57;;;;;;;1.03;100.00;98241.19;5024767;28;20033;-77
2023/03/07 04:43:06;;;;;;;31.20;12.45;;;;;;;1.09;100.00;98237.91;5037992;28;20362;-77
2023/03/07 04:45:33;;;;;;;;;;;;;;;1.08;100.00;98224.94;5024947;28;20079;-76
2023/03/07 04:47:59;;;;;;;25.95;11.38;;;;;;;1.07;100.00;98205.72;5027928;28;19912;-76
2023/03/07 04:50:25;;;;;;;29.80;10.48;;;;;;;1.07;100.00;98200.47;5023027;28;20039;-76
2023/03/07 04:52:50;;;;;;;27.30;11.63;;;;;;;1.09;100.00;98195.88;5028357;28;20153;-76
2023/03/07 04:55:16;;;;;;;29.38;11.02;;;;;;;1.11;100.00;98178.13;5010874;28;20155;-77
2023/03/07 04:57:41;;;;;;;28.70;11.60;;;;;;;1.08;100.00;98159.25;5022669;28;20042;-76
2023/03/07 05:00:08;;;;;;;21.70;10.43;;;;;;;1.12;100.00;98157.94;5010832;28;20336;-76
2023/03/07 05:02:35;;;;;;;24.80;9.48;;;;;;;1.14;100.00;98143.63;5022134;28;20429;-75
2023/03/07 05:05:02;;;;;;;23.45;10.43;;;;;;;1.16;100.00;98133.78;5007472;28;20058;-78
2023/03/07 05:07:28;;;;;;;22.95;8.18;;;;;;;1.21;100.00;98118.31;5015047;28;20033;-75
2023/03/07 05:09:55;;;;;;;17.55;6.85;;;;;;;1.25;100.00;98117.00;5032797;28;20024;-76
2023/03/07 05:12:21;;;;;;;;;;;;;;;1.29;100.00;98093.00;5022034;28;20483;-75
2023/03/07 05:14:46;;;;;;;19.33;8.60;;;;;;;1.30;100.00;98081.53;5024755;28;19952;-78
2023/03/07 05:17:11;;;;;;;19.10;8.38;;;;;;;1.25;100.00;98061.81;5041272;28;20053;-75
2023/03/07 05:19:37;;;;;;;19.95;7.03;;;;;;;1.31;100.00;98054.22;5039892;28;20374;-75
2023/03/07 05:22:03;;;;;;;19.85;6.18;;;;;;;1.30;100.00;98031.59;5029360;28;20029;-75
2023/03/07 05:24:29;;;;;;;15.27;4.47;;;;;;;1.38;100.00;98039.44;5025107;28;20039;-74
2023/03/07 05:26:55;;;;;;;12.60;5.05;;;;;;;1.42;100.00;98023.13;5023337;28;20471;-74
2023/03/07 05:29:21;;;;;;;14.68;6.05;;;;;;;1.45;100.00;97998.31;5026436;28;20100;-78
2023/03/07 05:31:46;;;;;;;22.40;6.30;;;;;;;1.43;100.00;97976.66;5031975;28;20562;-78
2023/03/07 05:34:12;;;;;;;15.65;5.90;;;;;;;1.40;100.00;97945.44;5041849;28;20039;-74
2023/03/07 05:36:38;;;;;;;24.55;7.00;;;;;;;1.47;100.00;97933.22;5038311;28;20076;-73
2023/03/07 05:39:04;;;;;;;10.30;4.28;;;;;;;1.49;100.00;97928.63;5026849;28;20029;-74
2023/03/07 05:41:30;;;;;;;13.68;3.63;;;;;;;1.45;100.00;97917.66;5038325;28;20436;-73
2023/03/07 05:43:55;;;;;;;29.23;4.40;;;;;;;1.48;100.00;97903.34;5040709;28;20025;-74
2023/03/07 05:46:21;;;;;;;11.15;3.88;;;;;;;1.54;100.00;97865.00;5039063;28;20536;-74
2023/03/07 05:48:47;;;;;;;16.92;3.60;;;;;;;1.53;100.00;97863.38;5021925;28;20116;-73
2023/03/07 05:51:12;;;;;;;16.40;4.00;;;;;;;1.57;100.00;97852.31;5026214;28;20068;-73
2023/03/07 05:53:38;;;;;;;10.85;2.90;;;;;;;1.57;100.00;97789.22;5020882;28;20144;-73
2023/03/07 05:56:04;;;;;;;14.65;3.78;;;;;;;1.59;100.00;97808.25;5026270;28;20062;-72
2023/03/07 05:58:29;;;;;;;6.55;2.90;;;;;;;1.63;100.00;97806.91;5020929;28;20056;-74
2023/03/07 06:00:55;;;;;;;8.50;3.05;;;;;;;1.58;100.00;97780.31;5041007;28;20126;-73
2023/03/07 06:03:21;;;;;;;;;;;;;;;1.60;100.00;97769.63;5027660;28;20026;-75
2023/03/07 06:05:50;;;;;;;10.70;2.55;;;;;;;1.63;100.00;97762.19;5026605;28;20308;-75
2023/03/07 06:08:15;;;;;;;13.10;1.98;;;;;;;1.66;100.00;97751.34;5043762;28;20124;-73
2023/03/07 06:10:41;;;;;;;10.80;3.17;;;;;;;1.73;100.00;97755.84;5026668;28;20525;-73
2023/03/07 06:13:17;;;;;;;12.10;2.40;;;;;;;1.73;100.00;97743.50;5043585;28;20029;-74
2023/03/07 06:15:43;;;;;;;12.90;3.15;;;;;;;1.72;100.00;97712.16;5044570;28;20102;-73
2023/03/07 06:18:09;;;;;;;7.72;2.08;;;;;;;1.74;100.00;97702.28;5043823;28;20493;-73
2023/03/07 06:20:35;;;;;;;8.13;1.27;;;;;;;1.78;100.00;97675.44;5027329;28;20044;-73
2023/03/07 06:23:01;;;;;;;6.80;1.88;;;;;;;1.76;100.00;97645.03;5027481;28;20052;-75
2023/03/07 06:25:27;;;;;;;;;;;;;;;1.74;100.00;97658.38;5010253;28;20397;-73
2023/03/07 06:27:58;;;;;;;7.47;2.08;;;;;;;1.75;100.00;97651.28;5030487;28;19917;-73
2023/03/07 06:30:24;;;;;;;14.70;2.78;;;;;;;1.73;100.00;97676.94;5030533;28;20052;-75
2023/03/07 06:32:49;;;;;;;10.60;1.67;;;;;;;1.69;100.00;97677.31;5046317;28;20478;-75
2023/03/07 06:35:15;;;;;;;8.40;1.80;;;;;;;1.78;100.00;97664.91;5026892;28;20486;-74
2023/03/07 06:37:40;;;;;;;6.72;1.88;;;;;;;1.86;100.00;97650.84;5045891;28;20041;-75
2023/03/07 06:40:08;;;;;;;13.63;1.98;;;;;;;1.89;100.00;97646.00;5030165;28;20043;-73
2023/03/07 06:42:34;;;;;;;5.10;1.40;;;;;;;1.84;100.00;97634.41;5028985;28;20569;-73
2023/03/07 06:45:01;;;;;;;6.40;1.38;;;;;;;1.79;100.00;97657.81;5024875;28;20037;-73
2023/03/07 06:47:27;;;;;;;9.65;1.42;;;;;;;1.66;100.00;97687.38;5026464;28;20032;-74
2023/03/07 06:49:54;;;;;;;5.72;1.25;;;;;;;1.51;100.00;97718.09;5028014;28;20025;-72
2023/03/07 06:52:20;;;;;;;4.15;1.58;;;;;;;1.39;100.00;97765.84;5030031;28;20437;-75
2023/03/07 06:54:46;;;;;;;13.77;1.98;;;;;;;1.42;100.00;97812.81;5028022;28;20087;-72
2023/03/07 06:57:11;;;;;;;10.10;1.90;;;;;;;1.39;100.00;97820.25;5046859;28;20029;-73
2023/03/07 06:59:39;;;;;;;5.45;1.83;;;;;;;1.39;100.00;97846.53;5027916;28;20033;-74
2023/03/07 07:02:04;;;;;;;;;;;;;;;1.53;100.00;97866.81;5029700;28;20021;-75
2023/03/07 07:04:32;;;;;;;9.88;1.40;;;;;;;1.53;100.00;97853.66;5043196;28;20362;-72
2023/03/07 07:06:57;;;;;;;7.15;1.48;;;;;;;1.43;100.00;97846.00;5029778;28;20023;-74
2023/03/07 07:09:24;;;;;;;6.07;1.20;;;;;;;1.40;100.00;97890.22;5046874;28;20131;-73
2023/03/07 07:11:49;;;;;;;7.95;2.03;;;;;;;1.40;100.00;97874.44;5029554;28;20124;-75
2023/03/07 07:14:15;;;;;;;8.43;1.67;;;;;;;1.29;100.00;97903.75;5029663;28;20051;-74
2023/03/07 07:16:41;;;;;;;10.50;1.98;;;;;;;1.29;100.00;97930.03;5029376;28;20051;-73
2023/03/07 07:19:08;;;;;;;10.55;3.15;;;;;;;1.31;100.00;97933.31;5013696;28;20025;-73
2023/03/07 07:21:34;;;;;;;11.57;1.90;;;;;;;1.51;100.00;97981.84;5029479;28;20043;-75
2023/03/07 07:23:59;;;;;;;6.10;2.10;;;;;;;1.65;100.00;97994.28;5046243;28;20037;-75
2023/03/07 07:26:25;;;;;;;13.25;1.70;;;;;;;1.66;100.00;97993.28;5029592;28;20070;-74
2023/03/07 07:28:52;;;;;;;10.27;2.17;;;;;;;1.63;100.00;98006.78;5029494;28;20746;-74
2023/03/07 07:31:17;;;;;;;11.52;1.70;;;;;;;1.60;100.00;97999.25;5045742;28;20025;-73
2023/03/07 07:33:45;;;;;;;16.88;3.08;;;;;;;1.54;100.00;97993.84;5028937;28;20033;-73
2023/03/07 07:36:11;;;;;;;20.33;2.45;;;;;;;1.63;100.00;97984.91;5029062;28;20095;-73
2023/03/07 07:38:37;;;;;;;16.40;2.50;;;;;;;1.71;100.00;97999.81;5029218;28;20119;-73
2023/03/07 07:41:03;;;;;;;17.08;2.70;;;;;;;1.76;100.00;98010.69;5045889;28;20119;-74
2023/03/07 07:43:29;;;;;;;10.60;2.78;;;;;;;1.80;100.00;98011.94;5029427;28;20037;-75
2023/03/07 07:46:07;;;;;;;15.65;2.58;;;;;;;1.89;100.00;98003.81;5045599;28;20055;-73
2023/03/07 07:48:33;;;;;;;14.30;2.78;;;;;;;1.97;100.00;98004.78;5029048;28;20492;-73
2023/03/07 07:51:01;;;;;;;14.73;3.97;;;;;;;2.14;100.00;97997.59;5045847;28;20414;-74
2023/03/07 07:53:26;;;;;;;10.63;3.05;;;;;;;2.29;100.00;97982.66;5029047;28;20517;-73
2023/03/07 07:55:52;;;;;;;12.38;2.53;;;;;;;2.55;100.00;97969.09;5041255;28;20020;-73
2023/03/07 07:58:17;;;;;;;23.35;3.42;;;;;;;2.74;100.00;97967.78;5037696;28;20025;-73
2023/03/07 08:00:44;;;;;;;13.68;3.33;;;;;;;2.68;100.00;97894.72;5023095;28;20041;-73
2023/03/07 08:03:09;;;;;;;;;;;;;;;2.50;100.00;97874.00;5044521;28;20151;-75
2023/03/07 08:05:35;;;;;;;15.90;2.75;;;;;;;2.45;100.00;97837.69;5040512;28;20051;-75
2023/03/07 08:08:00;;;;;;;17.30;2.83;;;;;;;2.43;100.00;97815.97;5041155;28;20127;-73
2023/03/07 08:10:25;;;;;;;10.40;2.10;;;;;;;2.39;100.00;97748.91;5041412;28;20275;-74
2023/03/07 08:12:51;;;;;;;10.37;3.27;;;;;;;2.39;100.00;97703.28;5040387;28;20450;-74
2023/03/07 08:15:20;;;;;;;21.30;3.38;;;;;;;2.19;100.00;97674.13;5042014;28;20033;-73
2023/03/07 08:17:45;;;;;;;13.95;2.85;;;;;;;2.11;100.00;97662.69;5040961;28;20037;-75
2023/03/07 08:20:11;;;;;;;12.15;1.85;;;;;;;1.99;100.00;97631.75;5041065;28;20028;-73
2023/03/07 08:22:38;;;;;;;8.25;1.80;;;;;;;2.70;100.00;97679.34;5040361;28;20040;-73
2023/03/07 08:25:07;;;;;;;16.77;2.63;;;;;;;3.26;100.00;97581.91;5027366;28;20040;-73
2023/03/07 08:27:32;;;;;;;12.65;1.75;;;;;;;3.21;100.00;97457.75;5022824;28;20056;-74
2023/03/07 08:29:59;;;;;;;15.63;2.75;;;;;;;3.06;100.00;97360.34;5042179;28;20498;-74
2023/03/07 08:32:25;;;;;;;5.47;1.38;;;;;;;3.24;100.00;97330.00;5041042;28;20409;-73
2023/03/07 08:34:51;;;;;;;11.30;2.22;;;;;;;3.45;100.00;97306.09;5041191;28;20111;-73
2023/03/07 08:37:17;;;;;;;5.43;1.20;;;;;;;3.26;100.00;97144.25;5041970;28;20383;-73
2023/03/07 08:39:42;;;;;;;3.73;1.13;;;;;;;3.62;100.00;97058.56;5022418;28;20041;-72
2023/03/07 08:42:07;;;;;;;8.17;1.60;;;;;;;3.41;100.00;96897.97;5026758;28;20021;-73
2023/03/07 08:44:33;;;;;;;9.13;1.50;;;;;;;3.66;100.00;96903.31;5040342;28;20461;-73
2023/03/07 08:46:58;;;;;;;7.97;1.60;;;;;;;4.84;100.00;97005.59;5041707;28;20025;-74
2023/03/07 08:49:23;;;;;;;10.00;1.93;;;;;;;5.17;100.00;96679.25;5041129;28;20041;-73
2023/03/07 08:51:49;;;;;;;11.43;1.77;;;;;;;4.91;100.00;96480.38;5041200;28;20041;-73
2023/03/07 08:54:14;;;;;;;8.50;1.73;;;;;;;4.47;100.00;96384.81;5041796;28;20314;-75
2023/03/07 08:56:40;;;;;;;10.85;1.70;;;;;;;3.95;100.00;96390.75;5039838;28;20302;-74
2023/03/07 08:59:05;;;;;;;9.77;2.23;;;;;;;3.66;100.00;96486.56;5041843;28;20481;-73
2023/03/07 09:01:31;;;;;;;8.90;2.27;;;;;;;3.46;100.00;96518.44;5039818;28;20033;-74
2023/03/07 09:03:56;;;;;;;10.48;2.45;;;;;;;3.25;100.00;96591.66;5035082;28;20039;-74
2023/03/07 09:06:22;;;;;;;19.50;3.10;;;;;;;3.24;100.00;96669.13;5041908;28;20033;-71
2023/03/07 09:08:49;;;;;;;7.65;1.50;;;;;;;3.24;100.00;96697.31;5029149;28;20036;-71
2023/03/07 09:11:16;;;;;;;18.67;3.50;;;;;;;3.59;100.00;96822.41;5045346;28;20041;-72
2023/03/07 09:13:42;;;;;;;10.48;1.77;;;;;;;3.79;100.00;96875.03;5027886;28;20048;-71
2023/03/07 09:16:09;;;;;;;9.23;1.65;;;;;;;4.40;100.00;96851.56;5045285;28;20045;-73
2023/03/07 09:18:35;;;;;;;12.57;1.67;;;;;;;5.68;100.00;96723.59;5045523;28;20040;-73
2023/03/07 09:21:01;;;;;;;;;;;;;;;5.91;100.00;96295.81;5045558;28;20041;-73
2023/03/07 09:23:26;;;;;;;7.20;2.17;;;;;;;6.74;100.00;96277.34;5027735;28;19913;-73
2023/03/07 09:25:52;;;;;;;8.63;2.10;;;;;;;4.84;100.00;95520.56;5044517;28;20029;-73
2023/03/07 09:28:17;;;;;;;12.20;2.57;;;;;;;4.24;100.00;95765.31;5045258;28;20291;-74
2023/03/07 09:30:42;;;;;;;17.80;3.43;;;;;;;3.96;100.00;95998.41;5045040;28;20025;-72
2023/03/07 09:33:08;;;;;;;9.60;2.37;;;;;;;3.76;100.00;96258.13;5043446;28;20425;-72
2023/03/07 09:35:33;;;;;;;16.95;2.38;;;;;;;3.53;100.00;96459.31;5043858;28;20341;-75
2023/03/07 09:37:59;;;;;;;14.82;3.20;;;;;;;3.16;100.00;96659.66;5045379;28;20043;-73
2023/03/07 09:40:26;;;;;;;14.60;2.60;;;;;;;3.10;100.00;96863.44;5040380;28;20498;-75
2023/03/07 09:42:57;;;;;;;14.48;2.75;;;;;;;3.11;100.00;96954.69;5045244;28;20033;-73
2023/03/07 09:45:48;;;;;;;18.35;4.60;;;;;;;3.52;100.00;96997.53;5011015;28;20098;-74
2023/03/07 09:48:54;;;;;;;11.20;3.05;;;;;;;3.50;100.00;96921.25;5042793;28;20379;-73
2023/03/07 09:51:24;;;;;;;5.43;1.70;;;;;;;4.76;100.00;96992.69;5039577;28;20032;-75
2023/03/07 09:53:49;;;;;;;6.82;2.00;;;;;;;4.85;100.00;96703.31;5042128;28;20029;-74
2023/03/07 09:56:20;;;;;;;8.73;1.43;;;;;;;5.71;100.00;96577.59;5046899;28;20505;-75
2023/03/07 09:58:50;;;;;;;6.47;2.38;;;;;;;5.68;100.00;96030.31;5047504;28;20294;-76
2023/03/07 10:01:20;;;;;;;4.78;1.10;;;;;;;5.81;100.00;95716.91;5031207;28;20043;-73
2023/03/07 10:04:03;;;;;;;9.00;1.38;;;;;;;5.15;100.00;95481.94;5047029;28;20039;-74
2023/03/07 10:06:41;;;;;;;6.03;1.23;;;;;;;5.06;100.00;95560.91;5048910;28;20044;-75
2023/03/07 10:09:18;;;;;;;6.22;1.50;;;;;;;5.58;100.00;95746.34;5049107;28;20047;-74
2023/03/07 10:12:09;;;;;;;3.28;1.67;;;;;;;5.47;96.87;95383.16;5045044;28;20401;-73
2023/03/07 10:14:49;;;;;;;5.18;0.82;;;;;;;5.99;94.19;95389.34;5029694;28;20816;-76
2023/03/07 10:17:19;;;;;;;5.88;1.23;;;;;;;6.30;91.38;95195.00;5046760;28;20037;-73
2023/03/07 10:19:48;;;;;;;4.55;0.98;;;;;;;6.86;89.26;95177.22;5047208;28;20028;-75
2023/03/07 10:22:20;;;;;;;3.60;0.82;;;;;;;5.36;87.27;94651.84;5044796;28;20025;-72
2023/03/07 10:24:51;;;;;;;8.20;1.35;;;;;;;4.47;88.24;94679.13;5044418;28;20037;-72
2023/03/07 10:27:21;;;;;;;6.28;1.40;;;;;;;4.48;90.48;95075.94;5030066;28;20172;-73
2023/03/07 10:29:49;;;;;;;8.25;1.30;;;;;;;4.35;90.94;95209.22;5043478;28;20402;-73
2023/03/07 10:32:19;;;;;;;5.00;1.30;;;;;;;4.10;93.14;95382.22;5044364;28;20028;-73
2023/03/07 10:34:50;;;;;;;7.60;1.85;;;;;;;4.02;96.20;95720.41;5043165;28;20098;-75
2023/03/07 10:37:18;;;;;;;6.97;1.42;;;;;;;4.33;98.38;96045.50;5044758;28;20021;-72
2023/03/07 10:39:55;;;;;;;12.35;2.42;;;;;;;4.00;98.57;95968.69;5045472;28;20017;-72
2023/03/07 10:42:23;;;;;;;11.63;2.85;;;;;;;4.71;98.42;96174.28;5013337;28;20479;-72
2023/03/07 10:44:50;;;;;;;9.20;2.30;;;;;;;5.08;98.30;96214.31;5043368;28;20037;-75
2023/03/07 10:47:22;;;;;;;10.45;2.42;;;;;;;4.83;95.79;95905.50;5043973;28;20043;-74
2023/03/07 10:49:49;;;;;;;8.73;1.52;;;;;;;6.08;94.69;96153.63;5044851;28;20047;-73
2023/03/07 10:52:30;;;;;;;9.82;2.72;;;;;;;5.86;92.38;95771.72;5043854;28;20470;-72
2023/03/07 10:55:54;;;;;;;11.82;1.77;;;;;;;5.13;88.05;95173.97;5039050;28;20124;-72
2023/03/07 10:58:25;;;;;;;7.97;1.20;;;;;;;4.17;85.81;94769.78;4942048;29;20090;-72
2023/03/07 11:01:17;;;;;;;5.00;1.52;;;;;;;3.84;86.39;94850.28;4943322;29;20043;-73
2023/03/07 11:04:00;;;;;;;11.45;1.52;;;;;;;4.17;86.61;95097.78;4942890;28;20522;-72
2023/03/07 11:06:37;;;;;;;5.93;1.70;;;;;;;5.56;86.30;95462.78;4942085;28;20050;-72
2023/03/07 11:09:09;;;;;;;9.10;1.52;;;;;;;5.95;82.56;95119.16;4938830;29;20520;-71
2023/03/07 11:11:35;;;;;;;6.15;1.33;;;;;;;6.09;81.33;95008.19;4927100;29;20082;-72
2023/03/07 11:14:07;;;;;;;8.32;2.10;;;;;;;6.74;81.44;95219.94;4927470;29;20031;-72
2023/03/07 11:16:38;;;;;;;4.82;0.88;;;;;;;6.53;77.92;94743.28;4943014;29;20043;-72
2023/03/07 11:19:25;;;;;;;6.10;1.67;;;;;;;6.40;75.97;94483.69;4943358;29;20054;-72
2023/03/07 11:21:54;;;;;;;9.15;1.95;;;;;;;7.16;77.12;94922.50;4942342;29;20583;-74
2023/03/07 11:24:38;;;;;;;7.07;1.00;;;;;;;5.82;76.03;94324.16;4943002;29;20093;-74
2023/03/07 11:27:04;;;;;;;6.57;1.50;;;;;;;4.64;82.08;94995.69;4939269;29;20118;-72
2023/03/07 11:29:32;;;;;;;11.07;1.17;;;;;;;4.72;85.61;95601.84;5006153;28;20081;-73
2023/03/07 11:32:21;;;;;;;8.05;1.02;;;;;;;5.18;83.58;95499.13;5036522;28;20039;-72